Weather at Fox Stephens Field Gilmer Municipal Airport

Public forecast

Using degrees Fahrenheit for public forecast. Weather courtesy of forecast.io.

Current aviation weather report (METAR) for Fox Stephens Field Gilmer Municipal Airport

Retrieved 2021/08/04 05:35 UTC (13 minutes ago):

KJXI 040535Z AUTO 00000KT 7SM CLR 22/21 A3002 RMK AO2 T02170210

Closest aviation forecast (TAF) to Fox Stephens Field Gilmer Municipal Airport

Closest forecast is East Texas Regional Airport, 22.4 nm (41.5 km) SSE. Retrieved 2021-08-04 00:42 UTC (5 hours ago):

TAF KGGG 032339Z 0400/0424 05007KT P6SM FEW040 FM040100 06004KT P6SM SKC FM041400 08007KT P6SM SKC